Umbrete, Spain
Current Conditions -  °F | °C
As of 6:30 PM on Tuesday 21 Oct 2014 (Local Time) from LEZL Reporting Station
Clear Clear  
Wind Chill: 86°   Ceiling: Unl
Heat Index: 86°   Visibility: 6mi
Dew Point: 54°   Wind: 8mph
Humidity: 33%   Direction: 60°ENE
Pressure: 30.18"   Gusts: NA
Location:  37.37°N, 6.16°W
Report Text: LEZL 211630Z 06007KT CAVOK 30/12 Q1022 NOSIG
Loading
Personal Weather Stations






























Interactive Weather Map
Tropical Storm Tracking
New forecast layout! Learn more

10-Day Weather Forecast

Advertisements
Track Severe Weather on mobile